Terminal Aerodrome Forecast
Issued by NWS Sterling, VA

Current Version | Previous Version | Text Only | Print | Product List | Glossary Off
Versions: 1 2 3 4 5 6 7 8 9 10 11 12 13 14 15

272
FTUS41 KLWX 201128
TAFMRB
TAF
KMRB 201128Z 2012/2112 31010G20KT P6SM SKC
     FM201400 32015G25KT P6SM SKC
     FM202300 32010G17KT P6SM SKC
     FM210100 32008KT P6SM SKC
     FM210600 VRB03KT P6SM FEW200=

USA.gov is the U.S. government's official web portal to all federal, state and local government web resources and services.